createdAt,value
2017-10-25T00:00:35.449Z,0
2017-10-25T00:01:15.940Z,3.43
2017-10-25T00:03:28.687Z,0
2017-10-25T00:04:09.167Z,0
2017-10-25T00:04:49.661Z,0
2017-10-25T00:05:30.140Z,0
2017-10-25T00:06:10.610Z,0
2017-10-25T00:06:51.132Z,0
2017-10-25T00:07:31.623Z,3.12
2017-10-25T00:08:12.086Z,0
2017-10-25T00:08:52.590Z,0
2017-10-25T00:09:33.049Z,3.43
2017-10-25T00:10:13.522Z,0
2017-10-25T00:10:53.979Z,0
2017-10-25T00:11:34.430Z,0
2017-10-25T00:12:14.887Z,0
2017-10-25T00:12:55.347Z,3.43
2017-10-25T00:14:53.145Z,0
2017-10-25T00:15:33.577Z,3.43
2017-10-25T00:16:14.026Z,3.43
2017-10-25T00:16:54.492Z,0
2017-10-25T00:17:34.959Z,3.43
2017-10-25T00:18:15.422Z,0.05
2017-10-25T00:18:55.922Z,0
2017-10-25T00:19:36.394Z,0
2017-10-25T00:20:16.836Z,3.43
2017-10-25T00:20:57.303Z,3.43
2017-10-25T00:21:37.766Z,0
2017-10-25T00:22:18.226Z,3.43
2017-10-25T00:22:58.629Z,0
2017-10-25T00:23:39.072Z,3.43
2017-10-25T00:24:19.545Z,3.43
2017-10-25T00:24:59.973Z,0.39
2017-10-25T00:25:40.425Z,0
2017-10-25T00:26:20.863Z,0
2017-10-25T00:27:01.362Z,3.43
2017-10-25T00:27:41.899Z,0
2017-10-25T00:28:22.351Z,50
2017-10-25T00:29:02.844Z,3.43
2017-10-25T00:29:43.301Z,0
2017-10-25T00:30:23.735Z,0
2017-10-25T00:31:04.216Z,0
2017-10-25T00:31:44.676Z,0
2017-10-25T00:32:25.135Z,3.43
2017-10-25T00:33:05.575Z,0
2017-10-25T00:33:46.051Z,0.02
2017-10-25T00:34:26.513Z,0
2017-10-25T00:35:06.983Z,100
2017-10-25T00:35:47.447Z,0.39
2017-10-25T00:36:27.925Z,0
2017-10-25T00:37:08.455Z,0
2017-10-25T00:37:48.896Z,0
2017-10-25T00:38:29.377Z,0
2017-10-25T00:39:09.882Z,0
2017-10-25T00:39:50.344Z,0
2017-10-25T00:40:30.878Z,3.43
2017-10-25T00:41:11.317Z,0
2017-10-25T00:41:51.742Z,0
2017-10-25T00:42:32.204Z,1.56
2017-10-25T00:43:12.681Z,25
2017-10-25T00:43:53.121Z,0
2017-10-25T00:44:33.613Z,0.39
2017-10-25T00:46:26.192Z,3.43
2017-10-25T00:47:06.734Z,0
2017-10-25T00:47:47.116Z,0.39
2017-10-25T00:48:27.554Z,0
2017-10-25T00:49:07.975Z,12.5
2017-10-25T00:49:48.472Z,100
2017-10-25T00:50:28.963Z,3.43
2017-10-25T00:51:09.370Z,0
2017-10-25T00:51:49.914Z,3.43
2017-10-25T00:52:30.433Z,0
2017-10-25T00:53:10.858Z,3.43
2017-10-25T00:53:51.319Z,3.43
2017-10-25T00:54:31.794Z,3.12
2017-10-25T00:55:12.247Z,0
2017-10-25T00:55:52.669Z,0
2017-10-25T00:56:33.138Z,0
2017-10-25T00:57:13.589Z,0
2017-10-25T00:57:53.984Z,0
2017-10-25T00:59:46.592Z,3.43
2017-10-25T01:00:27.013Z,0
2017-10-25T01:01:07.470Z,0
2017-10-25T01:02:59.999Z,0
2017-10-25T01:03:40.463Z,3.43
2017-10-25T01:04:20.950Z,0
2017-10-25T01:06:18.617Z,0
2017-10-25T01:06:59.090Z,0
2017-10-25T01:07:39.564Z,3.43
2017-10-25T01:08:20.053Z,3.43
2017-10-25T01:09:01.489Z,3.43
2017-10-25T01:09:41.965Z,0
2017-10-25T01:10:22.435Z,0
2017-10-25T01:11:02.919Z,0
2017-10-25T01:11:43.407Z,0
2017-10-25T01:12:23.943Z,50
2017-10-25T01:13:04.373Z,0
2017-10-25T01:13:44.876Z,0
2017-10-25T01:14:25.373Z,0
2017-10-25T01:15:05.853Z,3.43
2017-10-25T01:15:46.329Z,0
2017-10-25T01:16:26.784Z,0
2017-10-25T01:17:07.247Z,0
2017-10-25T01:17:47.712Z,3.12
2017-10-25T01:18:28.193Z,3.43
2017-10-25T01:19:08.669Z,3.12
2017-10-25T01:21:01.219Z,0
2017-10-25T01:21:41.662Z,0
2017-10-25T01:22:22.147Z,0
2017-10-25T01:23:02.659Z,3.43
2017-10-25T01:23:43.128Z,0
2017-10-25T01:24:23.617Z,0
2017-10-25T01:25:04.120Z,0.39
2017-10-25T01:25:44.592Z,0
2017-10-25T01:26:25.080Z,3.43
2017-10-25T01:27:05.542Z,100
2017-10-25T01:28:58.115Z,3.43
2017-10-25T01:29:38.675Z,0
2017-10-25T01:30:19.140Z,3.43
2017-10-25T01:30:59.609Z,3.43
2017-10-25T01:31:40.089Z,3.43
2017-10-25T01:32:20.578Z,0
2017-10-25T01:34:08.054Z,0
2017-10-25T01:34:48.551Z,3.43
2017-10-25T01:35:29.038Z,3.43
2017-10-25T01:36:09.526Z,0.01
2017-10-25T01:36:50.038Z,0
2017-10-25T01:37:30.518Z,0
2017-10-25T01:38:11.051Z,0
2017-10-25T01:38:51.512Z,3.43
2017-10-25T01:39:32.017Z,3.43
2017-10-25T01:40:12.542Z,0
2017-10-25T01:40:52.986Z,3.43
2017-10-25T01:41:33.467Z,3.43
2017-10-25T01:42:13.935Z,0
2017-10-25T01:42:54.362Z,0
2017-10-25T01:43:34.795Z,3.43
2017-10-25T01:44:15.237Z,3.43
2017-10-25T01:44:55.702Z,3.43
2017-10-25T01:45:36.153Z,0
2017-10-25T01:46:16.614Z,0.1
2017-10-25T01:46:57.083Z,100
2017-10-25T01:47:37.543Z,3.43
2017-10-25T01:48:17.991Z,0.05
2017-10-25T01:48:58.457Z,0.78
2017-10-25T01:49:38.951Z,0.02
2017-10-25T01:50:19.422Z,0
2017-10-25T01:50:59.880Z,0
2017-10-25T01:51:40.373Z,3.43
2017-10-25T01:52:20.838Z,0.19
2017-10-25T01:53:01.313Z,0
2017-10-25T01:53:41.793Z,0
2017-10-25T01:54:22.220Z,0
2017-10-25T01:56:34.990Z,12.5
2017-10-25T01:57:15.413Z,0
2017-10-25T01:57:55.925Z,3.43
2017-10-25T01:58:36.385Z,0.19
2017-10-25T01:59:16.781Z,3.43
2017-10-25T01:59:57.301Z,0.19
2017-10-25T02:00:37.746Z,3.43
2017-10-25T02:01:18.232Z,0
2017-10-25T02:01:58.670Z,3.43
2017-10-25T02:02:39.142Z,3.43
2017-10-25T02:03:19.593Z,0
2017-10-25T02:04:00.029Z,0
2017-10-25T02:04:40.485Z,3.43
2017-10-25T02:05:20.942Z,0
2017-10-25T02:06:01.374Z,3.43
2017-10-25T02:06:41.819Z,0
2017-10-25T02:07:22.280Z,0
2017-10-25T02:08:02.780Z,0
2017-10-25T02:08:43.187Z,3.43
2017-10-25T02:09:23.716Z,0
2017-10-25T02:10:04.178Z,0
2017-10-25T02:10:44.673Z,3.43
2017-10-25T02:11:25.075Z,3.43
2017-10-25T02:12:05.539Z,3.43
2017-10-25T02:12:45.981Z,0
2017-10-25T02:13:26.405Z,0
2017-10-25T02:14:06.857Z,0
2017-10-25T02:14:47.308Z,0
2017-10-25T02:15:27.758Z,0
2017-10-25T02:16:08.204Z,0
2017-10-25T02:16:48.658Z,0
2017-10-25T02:17:29.165Z,0
2017-10-25T02:18:09.616Z,0
2017-10-25T02:18:50.070Z,0
2017-10-25T02:19:30.503Z,0
2017-10-25T02:20:11.006Z,0
2017-10-25T02:20:51.466Z,0
2017-10-25T02:21:31.981Z,0
2017-10-25T02:22:12.452Z,0
2017-10-25T02:22:52.917Z,0
2017-10-25T02:23:33.361Z,0
2017-10-25T02:24:13.807Z,0
2017-10-25T02:24:54.297Z,0
2017-10-25T02:25:34.725Z,3.43
2017-10-25T02:26:15.191Z,0
2017-10-25T02:26:55.670Z,0
2017-10-25T02:27:36.121Z,0
2017-10-25T02:28:16.578Z,0
2017-10-25T02:28:57.035Z,89.32
2017-10-25T02:29:37.496Z,89.12
2017-10-25T02:30:17.938Z,88.93
2017-10-25T02:30:58.414Z,3.43
2017-10-25T02:31:38.880Z,34.88
2017-10-25T02:32:19.335Z,34.9
2017-10-25T02:32:59.788Z,34.86
2017-10-25T02:33:40.238Z,34.92
2017-10-25T02:34:20.647Z,89.41
2017-10-25T02:36:18.318Z,91.33
2017-10-25T02:36:58.774Z,91.05
2017-10-25T02:37:39.210Z,89.51
2017-10-25T02:39:57.002Z,91.72
2017-10-25T02:40:37.462Z,91.14
2017-10-25T02:41:18.147Z,89.51
2017-10-25T02:41:58.601Z,89.41
2017-10-25T02:43:46.081Z,12.5
2017-10-25T02:44:26.596Z,0
2017-10-25T02:45:07.060Z,34.56
2017-10-25T02:45:47.517Z,34.61
2017-10-25T02:46:27.966Z,34.63
2017-10-25T02:47:08.432Z,34.67
2017-10-25T02:47:48.879Z,34.74
2017-10-25T02:48:29.352Z,34.64
2017-10-25T02:49:09.743Z,34.81
2017-10-25T02:49:50.187Z,34.74
2017-10-25T02:50:30.621Z,34.75
2017-10-25T02:51:11.102Z,34.74
2017-10-25T02:51:51.552Z,34.68
2017-10-25T02:52:31.979Z,34.63
2017-10-25T02:53:12.421Z,34.7
2017-10-25T02:53:53.026Z,34.75
2017-10-25T02:56:05.732Z,34.64
2017-10-25T02:56:46.207Z,34.53
2017-10-25T02:57:26.643Z,34.66
2017-10-25T02:58:07.084Z,34.59
2017-10-25T02:58:47.540Z,34.66
2017-10-25T02:59:27.983Z,34.55
2017-10-25T03:00:08.451Z,34.61
2017-10-25T03:00:48.937Z,34.5
2017-10-25T03:01:29.441Z,34.57
2017-10-25T03:02:09.881Z,34.47
2017-10-25T03:02:50.328Z,34.47
2017-10-25T03:03:30.805Z,34.5
2017-10-25T03:04:11.313Z,34.43
2017-10-25T03:04:51.846Z,34.42
2017-10-25T03:05:33.200Z,34.45
2017-10-25T03:06:13.650Z,34.49
2017-10-25T03:06:54.150Z,34.51
2017-10-25T03:07:34.575Z,34.55
2017-10-25T03:08:15.070Z,34.53
2017-10-25T03:08:55.592Z,34.5
2017-10-25T03:10:43.072Z,34.5
2017-10-25T03:11:23.540Z,34.56
2017-10-25T03:12:04.010Z,0
2017-10-25T03:12:44.456Z,0
2017-10-25T03:13:24.920Z,34.52
2017-10-25T03:14:05.365Z,0
2017-10-25T03:14:45.801Z,0
2017-10-25T03:15:26.340Z,34.5
2017-10-25T03:16:06.773Z,34.43
2017-10-25T03:16:47.228Z,0
2017-10-25T03:17:27.659Z,0
2017-10-25T03:18:08.077Z,0
2017-10-25T03:18:49.945Z,0
2017-10-25T03:19:33.006Z,0
2017-10-25T03:20:13.467Z,0
2017-10-25T03:20:53.978Z,34.22
2017-10-25T03:21:34.412Z,0
2017-10-25T03:22:14.872Z,0
2017-10-25T03:22:55.310Z,0
2017-10-25T03:23:35.774Z,0
2017-10-25T03:24:16.228Z,0
2017-10-25T03:24:56.687Z,0
2017-10-25T03:25:37.147Z,0
2017-10-25T03:26:17.606Z,0
2017-10-25T03:26:58.022Z,0
2017-10-25T03:27:38.473Z,1.56
2017-10-25T03:28:18.895Z,50
2017-10-25T03:28:59.333Z,1.56
2017-10-25T03:29:39.791Z,3.43
2017-10-25T03:30:20.236Z,0
2017-10-25T03:31:00.696Z,0
2017-10-25T03:31:41.138Z,0
2017-10-25T03:32:21.610Z,0.39
2017-10-25T03:33:02.073Z,3.43
2017-10-25T03:33:42.513Z,6.25
2017-10-25T03:35:30.007Z,0
2017-10-25T03:36:10.455Z,0
2017-10-25T03:36:50.883Z,3.43
2017-10-25T03:37:31.342Z,0
2017-10-25T03:38:11.819Z,0
2017-10-25T03:40:04.359Z,0
2017-10-25T03:40:44.848Z,0
2017-10-25T03:41:25.329Z,0
2017-10-25T03:42:05.804Z,3.43
2017-10-25T03:42:46.309Z,0
2017-10-25T03:43:26.797Z,0
2017-10-25T03:44:07.273Z,0
2017-10-25T03:44:47.780Z,0
2017-10-25T03:46:45.435Z,0
2017-10-25T03:47:25.889Z,0
2017-10-25T03:48:06.349Z,3.43
2017-10-25T03:48:46.775Z,3.43
2017-10-25T03:49:27.214Z,3.43
2017-10-25T03:50:07.701Z,25
2017-10-25T03:50:48.114Z,3.43
2017-10-25T03:51:28.575Z,3.43
2017-10-25T03:52:09.018Z,0.39
2017-10-25T03:54:21.745Z,3.43
2017-10-25T03:55:02.189Z,3.43
2017-10-25T03:55:42.622Z,3.43
2017-10-25T03:57:55.286Z,0
2017-10-25T03:58:35.750Z,0
2017-10-25T03:59:16.242Z,0
2017-10-25T03:59:56.703Z,0
2017-10-25T04:00:37.193Z,0
2017-10-25T04:01:17.647Z,0
2017-10-25T04:01:58.116Z,0
2017-10-25T04:02:38.581Z,0
2017-10-25T04:03:19.019Z,0
2017-10-25T04:03:59.485Z,0
2017-10-25T04:04:39.922Z,0
2017-10-25T04:05:20.385Z,0
2017-10-25T04:06:00.839Z,0
2017-10-25T04:06:41.299Z,0
2017-10-25T04:07:21.773Z,0
2017-10-25T04:08:02.211Z,40.06
2017-10-25T04:08:42.661Z,0
2017-10-25T04:09:23.124Z,40.6
2017-10-25T04:10:03.597Z,42.45
2017-10-25T04:10:44.065Z,40.22
2017-10-25T04:11:24.510Z,39.97
2017-10-25T04:12:04.977Z,40.15
2017-10-25T04:12:45.399Z,38.21
2017-10-25T04:13:25.821Z,34.5
2017-10-25T04:14:06.290Z,37.3
2017-10-25T04:14:46.779Z,39.04
2017-10-25T04:15:27.237Z,40.52
2017-10-25T04:16:07.689Z,34.44
2017-10-25T04:16:48.146Z,41.84
2017-10-25T04:17:28.602Z,39.4
2017-10-25T04:18:09.066Z,40.89
2017-10-25T04:18:49.566Z,35.69
2017-10-25T04:19:29.971Z,35.05
2017-10-25T04:20:10.472Z,34.47
2017-10-25T04:20:50.876Z,37.01
2017-10-25T04:21:31.319Z,35.31
2017-10-25T04:22:11.841Z,34.4
2017-10-25T04:22:52.240Z,34.63
2017-10-25T04:23:32.742Z,34.45
2017-10-25T04:24:13.209Z,39.03
2017-10-25T04:24:53.652Z,40.52
2017-10-25T04:25:34.191Z,39.72
2017-10-25T04:26:14.651Z,37.29
2017-10-25T04:26:55.124Z,39.86
2017-10-25T04:27:35.561Z,37.77
2017-10-25T04:28:16.008Z,34.97
2017-10-25T04:28:56.478Z,37.76
2017-10-25T04:29:36.925Z,40.86
2017-10-25T04:30:17.386Z,34.46
2017-10-25T04:30:57.849Z,34.43
2017-10-25T04:31:38.272Z,34.4
2017-10-25T04:32:18.777Z,34.34
2017-10-25T04:32:59.162Z,35.24
2017-10-25T04:33:39.615Z,34.55
2017-10-25T04:34:20.065Z,34.35
2017-10-25T04:35:00.529Z,34.34
2017-10-25T04:35:40.983Z,34.46
2017-10-25T04:36:21.502Z,37.38
2017-10-25T04:37:01.934Z,34.34
2017-10-25T04:37:42.397Z,34.51
2017-10-25T04:38:22.839Z,34.33
2017-10-25T04:39:03.287Z,35.61
2017-10-25T04:40:50.798Z,34.22
2017-10-25T04:41:31.211Z,34.22
2017-10-25T04:42:11.668Z,34.64
2017-10-25T04:42:52.116Z,35.33
2017-10-25T04:43:32.562Z,34.61
2017-10-25T04:44:13.011Z,34.42
2017-10-25T04:44:53.448Z,34.26
2017-10-25T04:45:33.910Z,34.59
2017-10-25T04:46:14.351Z,34.3
2017-10-25T04:46:54.776Z,35.04
2017-10-25T04:47:35.231Z,34.33
2017-10-25T04:48:15.663Z,37.98
2017-10-25T04:48:56.210Z,34.64
2017-10-25T04:49:36.682Z,34.59
2017-10-25T04:50:17.097Z,34.32
2017-10-25T04:52:34.894Z,34.24
2017-10-25T04:53:15.335Z,34.28
2017-10-25T04:53:55.829Z,34.28
2017-10-25T04:54:36.312Z,34.34
2017-10-25T04:55:16.838Z,34.35
2017-10-25T04:55:57.322Z,34.29
2017-10-25T04:56:37.782Z,34.28
2017-10-25T04:57:18.274Z,34.34
2017-10-25T04:57:58.786Z,34.33
2017-10-25T04:58:39.279Z,34.29
2017-10-25T04:59:19.748Z,34.28
2017-10-25T05:00:00.254Z,34.24
2017-10-25T05:00:40.724Z,34.25
2017-10-25T05:01:21.230Z,34.32
2017-10-25T05:02:01.725Z,35.53
2017-10-25T05:02:42.199Z,34.99
2017-10-25T05:03:22.687Z,34.33
2017-10-25T05:04:03.172Z,34.28
2017-10-25T05:04:43.662Z,34.23
2017-10-25T05:05:24.147Z,34.28
2017-10-25T05:06:04.642Z,34.28
2017-10-25T05:06:45.147Z,34.29
2017-10-25T05:07:25.613Z,34.28
2017-10-25T05:08:06.113Z,34.28
2017-10-25T05:08:46.599Z,34.28
2017-10-25T05:09:27.081Z,34.28
2017-10-25T05:10:07.602Z,34.25
2017-10-25T05:10:48.074Z,34.31
2017-10-25T05:11:28.579Z,34.22
2017-10-25T05:12:09.040Z,34.22
2017-10-25T05:12:49.536Z,34.2
2017-10-25T05:13:30.047Z,34.2
2017-10-25T05:14:10.526Z,34.19
2017-10-25T05:14:51.004Z,34.17
2017-10-25T05:15:31.506Z,34.17
2017-10-25T05:16:12.010Z,34.14
2017-10-25T05:16:52.477Z,34.12
2017-10-25T05:17:32.965Z,34.15
2017-10-25T05:18:13.475Z,34.11
2017-10-25T05:18:53.973Z,34.09
2017-10-25T05:19:34.447Z,34.09
2017-10-25T05:20:14.990Z,34.08
2017-10-25T05:20:55.412Z,34.19
2017-10-25T05:21:35.903Z,34.12
2017-10-25T05:22:16.401Z,33.98
2017-10-25T05:22:56.896Z,33.99
2017-10-25T05:23:37.374Z,33.99
2017-10-25T05:24:18.859Z,33.99
2017-10-25T05:24:59.353Z,33.95
2017-10-25T05:25:39.827Z,33.97
2017-10-25T05:26:20.295Z,33.95
2017-10-25T05:27:00.719Z,33.91
2017-10-25T05:29:18.539Z,33.87
2017-10-25T05:29:59.100Z,33.89
2017-10-25T05:30:39.587Z,33.8
2017-10-25T05:31:20.038Z,33.84
2017-10-25T05:32:00.465Z,33.83
2017-10-25T05:32:40.960Z,33.8
2017-10-25T05:33:21.424Z,33.75
2017-10-25T05:34:01.883Z,33.75
2017-10-25T05:34:42.385Z,33.78
2017-10-25T05:35:22.876Z,33.8
2017-10-25T05:36:03.317Z,33.79
2017-10-25T05:36:43.763Z,33.83
2017-10-25T05:37:24.343Z,33.97
2017-10-25T05:38:04.834Z,36.8
2017-10-25T05:38:45.240Z,33.78
2017-10-25T05:39:25.699Z,33.72
2017-10-25T05:40:06.179Z,33.86
2017-10-25T05:40:46.673Z,33.74
2017-10-25T05:41:27.405Z,33.94
2017-10-25T05:42:07.900Z,34.2
2017-10-25T05:42:48.424Z,33.8
2017-10-25T05:43:28.965Z,34.01
2017-10-25T05:44:09.372Z,33.73
2017-10-25T05:44:49.839Z,34
2017-10-25T05:45:30.292Z,35.09
2017-10-25T05:46:10.786Z,33.71
2017-10-25T05:46:51.256Z,33.76
2017-10-25T05:47:31.863Z,33.83
2017-10-25T05:48:12.315Z,33.7
2017-10-25T05:48:52.806Z,37.66
2017-10-25T05:49:33.275Z,34.15
2017-10-25T05:50:13.741Z,33.71
2017-10-25T05:50:54.225Z,33.98
2017-10-25T05:51:34.813Z,34.17
2017-10-25T05:52:15.307Z,33.78
2017-10-25T05:52:55.779Z,37.42
2017-10-25T05:53:36.292Z,34.45
2017-10-25T05:54:16.736Z,37.63
2017-10-25T05:54:57.200Z,33.77
2017-10-25T05:55:37.698Z,37.63
2017-10-25T05:56:18.145Z,35.03
2017-10-25T05:56:58.593Z,34.26
2017-10-25T05:57:39.217Z,34.56
2017-10-25T05:58:19.728Z,34.88
2017-10-25T05:59:00.226Z,35.22
2017-10-25T06:00:52.877Z,33.75
2017-10-25T06:01:33.305Z,33.75
2017-10-25T06:02:13.839Z,33.76
2017-10-25T06:02:54.257Z,33.78
2017-10-25T06:03:34.703Z,33.73
2017-10-25T06:04:15.139Z,33.76
2017-10-25T06:04:55.580Z,33.78
2017-10-25T06:05:36.060Z,33.78
2017-10-25T06:06:16.501Z,33.74
2017-10-25T06:08:04.005Z,33.76
2017-10-25T06:08:44.471Z,33.8
2017-10-25T06:09:24.957Z,33.74
2017-10-25T06:10:05.512Z,33.75
2017-10-25T06:10:45.994Z,33.71
2017-10-25T06:11:26.485Z,33.84
2017-10-25T06:12:07.075Z,33.76
2017-10-25T06:12:47.430Z,33.79
2017-10-25T06:13:27.926Z,33.76
2017-10-25T06:14:09.180Z,33.84
2017-10-25T06:14:49.665Z,33.84
2017-10-25T06:15:30.152Z,33.86
2017-10-25T06:16:10.658Z,33.84
2017-10-25T06:16:51.139Z,33.91
2017-10-25T06:17:31.599Z,33.9
2017-10-25T06:18:12.052Z,33.88
2017-10-25T06:18:52.498Z,33.86
2017-10-25T06:20:40.053Z,33.86
2017-10-25T06:21:20.478Z,33.84
2017-10-25T06:22:00.961Z,33.83
2017-10-25T06:22:41.461Z,33.86
2017-10-25T06:23:21.926Z,33.9
2017-10-25T06:24:02.465Z,33.87
2017-10-25T06:24:42.926Z,33.83
2017-10-25T06:25:23.377Z,33.75
2017-10-25T06:26:03.847Z,33.78
2017-10-25T06:26:44.311Z,33.76
2017-10-25T06:27:24.755Z,33.77
2017-10-25T06:28:06.183Z,33.86
2017-10-25T06:28:46.612Z,33.77
2017-10-25T06:29:27.069Z,33.8
2017-10-25T06:30:07.558Z,33.8
2017-10-25T06:30:48.064Z,33.88
2017-10-25T06:31:28.548Z,33.91
2017-10-25T06:32:09.071Z,33.88
2017-10-25T06:32:49.582Z,33.75
2017-10-25T06:34:42.183Z,33.82
2017-10-25T06:35:22.600Z,33.83
2017-10-25T06:36:03.129Z,33.92
2017-10-25T06:36:43.588Z,33.87
2017-10-25T06:37:24.143Z,33.94
2017-10-25T06:38:04.576Z,33.94
2017-10-25T06:38:45.036Z,34.01
2017-10-25T06:40:32.875Z,33.92
2017-10-25T06:41:13.421Z,33.99
2017-10-25T06:41:53.899Z,33.98
2017-10-25T06:42:34.346Z,33.98
2017-10-25T06:43:14.784Z,33.95
2017-10-25T06:43:55.427Z,33.98
2017-10-25T06:44:35.911Z,33.97
2017-10-25T06:46:28.455Z,34.11
2017-10-25T06:47:08.947Z,34.09
2017-10-25T06:47:49.437Z,34.11
2017-10-25T06:48:29.854Z,34.06
2017-10-25T06:49:10.329Z,34.08
2017-10-25T06:51:07.908Z,34.2
2017-10-25T06:51:48.339Z,34.19
2017-10-25T06:53:40.894Z,34.29
2017-10-25T06:54:21.463Z,34.26
2017-10-25T06:55:01.926Z,34.21
2017-10-25T06:55:42.370Z,34.34
2017-10-25T06:56:22.868Z,34.31
2017-10-25T06:57:03.325Z,34.33
2017-10-25T06:59:16.085Z,34.44
2017-10-25T06:59:56.677Z,34.42
2017-10-25T07:00:37.147Z,34.43
2017-10-25T07:01:17.624Z,34.44
2017-10-25T07:01:58.093Z,34.43
2017-10-25T07:02:38.661Z,34.57
2017-10-25T07:03:19.124Z,34.53
2017-10-25T07:03:59.586Z,34.47
2017-10-25T07:05:47.139Z,34.53
2017-10-25T07:06:27.750Z,34.48
2017-10-25T07:07:08.226Z,34.55
2017-10-25T07:07:49.268Z,34.56
2017-10-25T07:08:29.699Z,34.51
2017-10-25T07:09:10.112Z,34.45
2017-10-25T07:09:50.545Z,34.45
2017-10-25T07:10:31.041Z,34.34
2017-10-25T07:11:11.528Z,34.33
2017-10-25T07:11:52.037Z,34.35
2017-10-25T07:12:32.580Z,34.39
2017-10-25T07:13:13.056Z,34.5
2017-10-25T07:13:53.551Z,34.55
2017-10-25T07:14:33.981Z,34.44
2017-10-25T07:15:14.430Z,34.52
2017-10-25T07:15:54.933Z,34.48
2017-10-25T07:16:35.413Z,34.55
2017-10-25T07:17:15.856Z,34.53
2017-10-25T07:19:03.347Z,34.68
2017-10-25T07:19:43.855Z,34.68
2017-10-25T07:20:24.288Z,34.81
2017-10-25T07:21:04.774Z,34.81
2017-10-25T07:21:45.255Z,34.73
2017-10-25T07:22:25.850Z,34.66
2017-10-25T07:23:06.250Z,34.59
2017-10-25T07:23:46.735Z,34.5
2017-10-25T07:25:44.501Z,34.53
2017-10-25T07:26:24.869Z,34.53
2017-10-25T07:27:05.323Z,34.5
2017-10-25T07:27:45.805Z,34.64
2017-10-25T07:28:26.354Z,34.63
2017-10-25T07:29:06.851Z,34.64
2017-10-25T07:29:47.238Z,34.59
2017-10-25T07:30:27.681Z,34.59
2017-10-25T07:31:08.125Z,34.57
2017-10-25T07:31:48.643Z,34.57
2017-10-25T07:32:29.110Z,34.61
2017-10-25T07:34:16.599Z,34.77
2017-10-25T07:34:57.085Z,34.8
2017-10-25T07:35:37.557Z,34.91
2017-10-25T07:36:18.063Z,34.92
2017-10-25T07:36:58.518Z,34.94
2017-10-25T07:37:38.981Z,34.93
2017-10-25T07:38:19.440Z,34.92
2017-10-25T07:38:59.985Z,34.97
2017-10-25T07:39:40.500Z,35.02
2017-10-25T07:40:20.865Z,35.05
2017-10-25T07:41:01.362Z,35.12
2017-10-25T07:41:41.812Z,35.09
2017-10-25T07:42:22.276Z,35.15
2017-10-25T07:43:02.825Z,35.16
2017-10-25T07:43:43.326Z,35.18
2017-10-25T07:44:23.781Z,35.22
2017-10-25T07:46:16.315Z,35.2
2017-10-25T07:46:56.874Z,35.27
2017-10-25T07:47:37.337Z,35.31
2017-10-25T07:48:17.891Z,35.21
2017-10-25T07:48:58.395Z,35.24
2017-10-25T07:49:38.828Z,35.09
2017-10-25T07:51:31.383Z,35.27
2017-10-25T07:52:11.924Z,35.07
2017-10-25T07:52:52.350Z,35.12
2017-10-25T07:53:32.858Z,35.07
2017-10-25T07:54:13.369Z,35.21
2017-10-25T07:54:53.936Z,35.24
2017-10-25T07:55:34.411Z,35.22
2017-10-25T07:56:14.920Z,35.22
2017-10-25T07:56:55.475Z,35.22
2017-10-25T07:57:35.988Z,35.16
2017-10-25T07:59:53.840Z,35.31
2017-10-25T08:00:34.283Z,35.33
2017-10-25T08:01:14.812Z,35.31
2017-10-25T08:01:55.830Z,35.24
2017-10-25T08:02:36.346Z,35.22
2017-10-25T08:03:16.788Z,35.13
2017-10-25T08:03:57.256Z,35.15
2017-10-25T08:04:37.703Z,35.15
2017-10-25T08:05:18.240Z,35.1
2017-10-25T08:05:58.904Z,35.04
2017-10-25T08:06:39.331Z,35.08
2017-10-25T08:07:19.909Z,35.04
2017-10-25T08:08:00.418Z,35.1
2017-10-25T08:08:40.863Z,35.1
2017-10-25T08:09:21.374Z,35.05
2017-10-25T08:10:01.867Z,35.02
2017-10-25T08:10:42.275Z,35.06
2017-10-25T08:11:22.737Z,35.03
2017-10-25T08:12:03.270Z,34.97
2017-10-25T08:12:43.731Z,35.02
2017-10-25T08:13:24.234Z,35.01
2017-10-25T08:15:42.133Z,35.06
2017-10-25T08:16:22.632Z,35.02
2017-10-25T08:18:35.382Z,35.17
2017-10-25T08:19:15.869Z,35.13
2017-10-25T08:19:56.349Z,35.15
2017-10-25T08:20:36.860Z,35.14
2017-10-25T08:21:17.407Z,35.18
2017-10-25T08:21:57.884Z,35.27
2017-10-25T08:22:38.382Z,35.33
2017-10-25T08:23:18.850Z,35.35
2017-10-25T08:23:59.318Z,35.4
2017-10-25T08:24:39.814Z,35.37
2017-10-25T08:25:20.314Z,35.4
2017-10-25T08:26:00.853Z,35.33
2017-10-25T08:28:18.682Z,35.58
2017-10-25T08:28:59.147Z,35.49
2017-10-25T08:29:39.713Z,35.5
2017-10-25T08:30:20.831Z,35.5
2017-10-25T08:31:01.396Z,35.46
2017-10-25T08:31:41.883Z,35.46
2017-10-25T08:33:39.592Z,35.42
2017-10-25T08:34:20.754Z,35.41
2017-10-25T08:35:01.342Z,35.46
2017-10-25T08:35:41.893Z,35.35
2017-10-25T08:36:22.442Z,35.31
2017-10-25T08:37:02.944Z,35.25
2017-10-25T08:37:43.488Z,35.24
2017-10-25T08:38:24.067Z,35.26
2017-10-25T08:40:41.947Z,35.29
2017-10-25T08:41:22.412Z,35.33
2017-10-25T08:42:02.881Z,35.39
2017-10-25T08:42:43.405Z,35.37
2017-10-25T08:43:23.890Z,35.44
2017-10-25T08:44:04.336Z,35.46
2017-10-25T08:44:44.880Z,35.46
2017-10-25T08:45:25.412Z,35.46
2017-10-25T08:46:05.930Z,35.53
2017-10-25T08:46:46.400Z,35.61
2017-10-25T08:47:26.891Z,35.68
2017-10-25T08:48:07.376Z,35.75
2017-10-25T08:50:25.180Z,35.86
2017-10-25T08:51:05.728Z,35.99
2017-10-25T08:51:46.233Z,35.94
2017-10-25T08:53:59.249Z,36.19
2017-10-25T08:54:39.742Z,36.06
2017-10-25T08:55:20.236Z,36.1
2017-10-25T08:56:00.777Z,36.11
2017-10-25T08:56:41.233Z,36.07
2017-10-25T08:57:21.617Z,36.22
2017-10-25T08:59:39.478Z,36.54
2017-10-25T09:00:19.976Z,36.47
2017-10-25T09:01:00.484Z,36.43
2017-10-25T09:01:41.002Z,36.58
2017-10-25T09:03:38.598Z,36.56
2017-10-25T09:04:19.084Z,36.49
2017-10-25T09:04:59.589Z,36.66
2017-10-25T09:05:40.050Z,36.52
2017-10-25T09:07:27.540Z,36.8
2017-10-25T09:08:08.035Z,36.88
2017-10-25T09:08:48.470Z,36.82
2017-10-25T09:09:28.962Z,36.78
2017-10-25T09:10:09.434Z,36.77
2017-10-25T09:10:49.987Z,36.69
2017-10-25T09:11:30.423Z,36.51
2017-10-25T09:12:10.926Z,36.47
2017-10-25T09:12:51.356Z,36.51
2017-10-25T09:13:32.740Z,36.46
2017-10-25T09:14:13.264Z,36.51
2017-10-25T09:14:53.692Z,36.38
2017-10-25T09:15:34.199Z,36.36
2017-10-25T09:17:21.743Z,36.25
2017-10-25T09:18:02.450Z,36.36
2017-10-25T09:18:42.902Z,36.35
2017-10-25T09:20:30.396Z,36.36
2017-10-25T09:21:10.933Z,36.33
2017-10-25T09:21:51.541Z,36.27
2017-10-25T09:22:32.083Z,36.32
2017-10-25T09:23:13.261Z,36.23
2017-10-25T09:23:53.739Z,36.29
2017-10-25T09:24:34.209Z,36.18
2017-10-25T09:25:14.716Z,36.29
2017-10-25T09:25:55.188Z,36.25
2017-10-25T09:26:35.673Z,36.31
2017-10-25T09:27:16.161Z,36.43
2017-10-25T09:27:56.595Z,36.35
2017-10-25T09:28:37.093Z,36.22
2017-10-25T09:29:17.550Z,36.26
2017-10-25T09:29:58.033Z,36.24
2017-10-25T09:30:38.520Z,36.27
2017-10-25T09:31:18.988Z,36.32
2017-10-25T09:31:59.528Z,36.34
2017-10-25T09:32:40.007Z,36.38
2017-10-25T09:33:20.484Z,36.26
2017-10-25T09:34:00.975Z,36.08
2017-10-25T09:34:41.454Z,36.13
2017-10-25T09:35:21.934Z,36.07
2017-10-25T09:36:02.708Z,36.16
2017-10-25T09:36:43.994Z,36.22
2017-10-25T09:38:36.559Z,36.18
2017-10-25T09:39:17.065Z,36.17
2017-10-25T09:39:57.545Z,36.24
2017-10-25T09:40:38.052Z,36.4
2017-10-25T09:41:18.522Z,36.34
2017-10-25T09:41:58.931Z,36.27
2017-10-25T09:43:46.536Z,36.24
2017-10-25T09:44:27.002Z,36.24
2017-10-25T09:46:15.580Z,36.18
2017-10-25T09:46:55.672Z,36.07
2017-10-25T09:47:36.131Z,35.98
2017-10-25T09:48:16.638Z,35.99
2017-10-25T09:48:57.131Z,36
2017-10-25T09:49:37.632Z,35.94
2017-10-25T09:50:18.140Z,35.89
2017-10-25T09:50:58.576Z,35.89
2017-10-25T09:53:16.386Z,36.13
2017-10-25T09:53:56.843Z,36.13
2017-10-25T09:54:37.281Z,36.24
2017-10-25T09:55:17.764Z,36.27
2017-10-25T09:55:58.221Z,36.43
2017-10-25T09:56:38.764Z,36.41
2017-10-25T09:57:19.182Z,36.45
2017-10-25T09:58:00.019Z,36.41
2017-10-25T09:58:40.495Z,36.49
2017-10-25T09:59:23.773Z,36.49
2017-10-25T10:00:06.682Z,36.65
2017-10-25T10:00:47.377Z,36.66
2017-10-25T10:01:27.682Z,36.69
2017-10-25T10:02:08.116Z,36.52
2017-10-25T10:04:05.769Z,36.69
2017-10-25T10:04:46.279Z,36.84
2017-10-25T10:05:26.735Z,36.86
2017-10-25T10:06:07.175Z,36.9
2017-10-25T10:06:47.648Z,36.84
2017-10-25T10:07:28.116Z,36.88
2017-10-25T10:08:08.635Z,36.98
2017-10-25T10:08:49.120Z,36.94
2017-10-25T10:11:07.127Z,36.99
2017-10-25T10:11:47.445Z,36.96
2017-10-25T10:12:27.977Z,36.98
2017-10-25T10:13:08.410Z,37.12
2017-10-25T10:13:48.904Z,37.19
2017-10-25T10:14:29.356Z,37.29
2017-10-25T10:15:10.044Z,37.18